Time;durP1;ratioP1;P1;durP2;ratioP2;P2;SDS_P1;SDS_P2;PMS_P1;PMS_P2;Temp;Humidity;BMP_temperature;BMP_pressure;BME280_temperature;BME280_humidity;BME280_pressure;Samples;Min_cycle;Max_cycle;Signal;HPM_P1;HPM_P2
2022/08/02 00:01:37;;;;;;;;;;;563.30;2432.00;;;;;;5070221;28;19924;-63
2022/08/02 00:04:03;;;;;;;;;;;563.30;2432.00;;;;;;5071245;28;20007;-59
2022/08/02 00:06:29;;;;;;;;;;;563.30;2432.00;;;;;;5074168;28;19963;-59
2022/08/02 00:08:54;;;;;;;;;;;563.30;2432.00;;;;;;5073990;28;19962;-64
2022/08/02 00:11:20;;;;;;;;;;;538.50;2406.40;;;;;;5073992;28;19909;-63
2022/08/02 00:13:45;;;;;;;;;;;538.50;2406.40;;;;;;5074027;28;19909;-58
2022/08/02 00:16:11;;;;;;;;;;;538.50;2406.40;;;;;;5074208;28;19909;-61
2022/08/02 00:18:37;;;;;;;;;;;538.50;2406.40;;;;;;5073744;28;19909;-62
2022/08/02 00:21:02;;;;;;;;;;;538.50;2406.40;;;;;;5073716;28;20318;-58
2022/08/02 00:23:28;;;;;;;;;;;538.50;2406.40;;;;;;5073889;28;19909;-62
2022/08/02 00:25:53;;;;;;;;;;;563.20;2432.00;;;;;;5073437;28;19915;-63
2022/08/02 00:28:19;;;;;;;;;;;563.20;2432.00;;;;;;5073734;28;20030;-59
2022/08/02 00:30:44;;;;;;;;;;;563.20;2432.00;;;;;;5073485;28;19916;-63
2022/08/02 00:33:10;;;;;;;;;;;563.30;2432.00;;;;;;5073725;28;20354;-62
2022/08/02 00:35:35;;;;;;;;;;;563.20;2432.00;;;;;;5073653;28;20346;-61
2022/08/02 00:38:02;;;;;;;;;;;563.20;2432.00;;;;;;5073422;28;19908;-63
2022/08/02 00:40:27;;;;;;;;;;;563.20;2432.00;;;;;;5073463;28;19908;-59
2022/08/02 00:43:06;;;;;;;;;;;538.50;2406.40;;;;;;5073167;28;20017;-61
2022/08/02 00:45:36;;;;;;;;;;;538.40;2406.40;;;;;;5073411;28;19916;-62
2022/08/02 00:48:02;;;;;;;;;;;538.10;2406.40;;;;;;5073552;28;20323;-63
2022/08/02 00:50:28;;;;;;;;;;;538.00;2406.40;;;;;;5073442;28;19909;-63
2022/08/02 00:52:53;;;;;;;;;;;538.00;2406.40;;;;;;5072984;28;20343;-62
2022/08/02 00:55:19;;;;;;;;;;;538.00;2406.40;;;;;;5073213;28;19919;-57
2022/08/02 00:57:45;;;;;;;;;;;538.10;2406.40;;;;;;5072955;28;19912;-63
2022/08/02 01:00:11;;;;;;;;;;;538.10;2406.40;;;;;;5072925;28;19966;-61
2022/08/02 01:02:36;;;;;;;;;;;538.10;2406.40;;;;;;5072871;28;19925;-62
2022/08/02 01:05:02;;;;;;;;;;;538.10;2406.40;;;;;;5073035;28;20282;-61
2022/08/02 01:07:28;;;;;;;;;;;538.10;2406.40;;;;;;5073091;28;19943;-62
2022/08/02 01:09:53;;;;;;;;;;;538.10;2406.40;;;;;;5072831;28;19983;-61
2022/08/02 01:12:19;;;;;;;;;;;538.00;2406.40;;;;;;5072911;28;19908;-60
2022/08/02 01:14:51;;;;;;;;;;;537.60;2406.40;;;;;;5072695;28;19919;-60
2022/08/02 01:17:25;;;;;;;;;;;537.80;2406.40;;;;;;5072598;28;19908;-63
2022/08/02 01:19:50;;;;;;;;;;;537.80;2406.40;;;;;;5072696;28;19909;-62
2022/08/02 01:22:16;;;;;;;;;;;537.90;2406.40;;;;;;5072407;28;19923;-59
2022/08/02 01:24:48;;;;;;;;;;;537.90;2406.40;;;;;;5072527;28;19966;-63
2022/08/02 01:27:19;;;;;;;;;;;537.80;2406.40;;;;;;5072327;28;19909;-62
2022/08/02 01:29:47;;;;;;;;;;;537.80;2406.40;;;;;;5072391;28;19908;-62
2022/08/02 01:32:24;;;;;;;;;;;537.70;2406.40;;;;;;5072398;28;19913;-63
2022/08/02 01:35:01;;;;;;;;;;;537.70;2406.40;;;;;;5072449;28;19966;-59
2022/08/02 01:37:36;;;;;;;;;;;537.70;2406.40;;;;;;5072147;28;19962;-61
2022/08/02 01:40:07;;;;;;;;;;;537.60;2406.40;;;;;;5072590;28;20014;-62
2022/08/02 01:42:33;;;;;;;;;;;512.90;2380.80;;;;;;5072031;28;19955;-60
2022/08/02 01:45:00;;;;;;;;;;;512.90;2380.80;;;;;;5072334;28;20278;-59
2022/08/02 01:47:27;;;;;;;;;;;512.90;2380.80;;;;;;5072137;28;19913;-62
2022/08/02 01:49:55;;;;;;;;;;;512.70;2380.80;;;;;;5071824;28;19913;-58
2022/08/02 01:52:23;;;;;;;;;;;512.70;2380.80;;;;;;5072176;28;19996;-62
2022/08/02 01:55:09;;;;;;;;;;;512.60;2380.80;;;;;;5072036;28;19935;-62
2022/08/02 01:57:38;;;;;;;;;;;512.60;2380.80;;;;;;5071888;28;19970;-62
2022/08/02 02:00:04;;;;;;;;;;;512.60;2380.80;;;;;;5071477;28;19920;-62
2022/08/02 02:02:31;;;;;;;;;;;512.60;2380.80;;;;;;5071821;28;19926;-64
2022/08/02 02:04:57;;;;;;;;;;;512.60;2380.80;;;;;;5071777;28;19934;-64
2022/08/02 02:07:23;;;;;;;;;;;512.70;2380.80;;;;;;5071767;28;20445;-61
2022/08/02 02:09:49;;;;;;;;;;;512.70;2380.80;;;;;;5071831;28;19909;-60
2022/08/02 02:12:15;;;;;;;;;;;512.60;2380.80;;;;;;5070469;28;20251;-58
2022/08/02 02:14:42;;;;;;;;;;;512.40;2380.80;;;;;;5071669;28;19908;-63
2022/08/02 02:17:09;;;;;;;;;;;512.20;2380.80;;;;;;5071758;28;20042;-63
2022/08/02 02:19:35;;;;;;;;;;;512.10;2380.80;;;;;;5071343;28;19920;-62
2022/08/02 02:22:01;;;;;;;;;;;512.10;2380.80;;;;;;5071482;28;19917;-63
2022/08/02 02:24:26;;;;;;;;;;;512.20;2380.80;;;;;;5071528;28;20003;-64
2022/08/02 02:26:52;;;;;;;;;;;512.20;2380.80;;;;;;5070890;28;19948;-64
2022/08/02 02:29:19;;;;;;;;;;;512.20;2380.80;;;;;;5070174;28;19908;-58
2022/08/02 02:31:45;;;;;;;;;;;512.10;2380.80;;;;;;5071095;28;19962;-59
2022/08/02 02:34:15;;;;;;;;;;;512.20;2380.80;;;;;;5071430;28;19958;-61
2022/08/02 02:36:44;;;;;;;;;;;512.20;2380.80;;;;;;5071307;28;19908;-65
2022/08/02 02:39:11;;;;;;;;;;;512.20;2380.80;;;;;;5071489;28;19943;-63
2022/08/02 02:41:37;;;;;;;;;;;512.20;2380.80;;;;;;5071191;28;19916;-64
2022/08/02 02:44:03;;;;;;;;;;;512.20;2380.80;;;;;;5070911;28;19908;-59
2022/08/02 02:46:30;;;;;;;;;;;512.20;2380.80;;;;;;5071191;28;19916;-59
2022/08/02 02:48:56;;;;;;;;;;;512.30;2380.80;;;;;;5070856;28;20351;-65
2022/08/02 02:51:22;;;;;;;;;;;512.40;2380.80;;;;;;5071394;28;19909;-65
2022/08/02 02:53:49;;;;;;;;;;;512.40;2380.80;;;;;;5071270;28;19909;-65
2022/08/02 02:56:15;;;;;;;;;;;512.40;2380.80;;;;;;5070876;28;19916;-58
2022/08/02 02:58:41;;;;;;;;;;;512.50;2380.80;;;;;;5071017;28;19915;-57
2022/08/02 03:03:52;;;;;;;;;;;512.40;2380.80;;;;;;5071130;28;19923;-60
2022/08/02 03:06:18;;;;;;;;;;;512.40;2380.80;;;;;;5070971;28;20373;-64
2022/08/02 03:08:43;;;;;;;;;;;512.40;2380.80;;;;;;5070711;28;19991;-63
2022/08/02 03:11:10;;;;;;;;;;;512.40;2380.80;;;;;;5070931;28;19916;-64
2022/08/02 03:13:36;;;;;;;;;;;512.40;2380.80;;;;;;5070621;28;19908;-59
2022/08/02 03:16:02;;;;;;;;;;;512.30;2380.80;;;;;;5070949;28;20329;-63
2022/08/02 03:18:35;;;;;;;;;;;512.30;2380.80;;;;;;5071004;28;19960;-65
2022/08/02 03:21:01;;;;;;;;;;;512.40;2380.80;;;;;;5070929;28;20271;-65
2022/08/02 03:23:27;;;;;;;;;;;512.40;2380.80;;;;;;5070828;28;20370;-63
2022/08/02 03:25:53;;;;;;;;;;;512.40;2380.80;;;;;;5070648;28;20277;-58
2022/08/02 03:28:18;;;;;;;;;;;512.40;2380.80;;;;;;5070747;28;20008;-64
2022/08/02 03:30:44;;;;;;;;;;;512.40;2380.80;;;;;;5070452;28;20007;-64
2022/08/02 03:33:10;;;;;;;;;;;512.40;2380.80;;;;;;5070853;28;20381;-63
2022/08/02 03:35:36;;;;;;;;;;;512.20;2380.80;;;;;;5070667;28;19909;-65
2022/08/02 03:38:02;;;;;;;;;;;487.30;2380.80;;;;;;5071650;28;20343;-64
2022/08/02 03:40:28;;;;;;;;;;;487.10;2380.80;;;;;;5074809;28;19942;-65
2022/08/02 03:42:54;;;;;;;;;;;487.20;2380.80;;;;;;5074383;28;20282;-60
2022/08/02 03:45:20;;;;;;;;;;;487.30;2380.80;;;;;;5074747;28;19909;-62
2022/08/02 03:47:45;;;;;;;;;;;512.00;2380.80;;;;;;5074339;28;19917;-62
2022/08/02 03:50:14;;;;;;;;;;;512.00;2380.80;;;;;;5074666;28;19909;-62
2022/08/02 03:52:41;;;;;;;;;;;512.10;2380.80;;;;;;5074335;28;19909;-63
2022/08/02 03:55:07;;;;;;;;;;;512.20;2380.80;;;;;;5074185;28;19915;-59
2022/08/02 03:57:35;;;;;;;;;;;512.20;2380.80;;;;;;5074209;28;20244;-61
2022/08/02 04:00:00;;;;;;;;;;;512.10;2380.80;;;;;;5074138;28;19923;-60
2022/08/02 04:02:26;;;;;;;;;;;512.30;2380.80;;;;;;5073948;28;20302;-64
2022/08/02 04:04:52;;;;;;;;;;;512.30;2380.80;;;;;;5074135;28;19909;-61
2022/08/02 04:07:17;;;;;;;;;;;512.40;2380.80;;;;;;5073871;28;19938;-64
2022/08/02 04:09:43;;;;;;;;;;;512.50;2380.80;;;;;;5074056;28;19959;-59
2022/08/02 04:12:08;;;;;;;;;;;512.60;2380.80;;;;;;5074121;28;19916;-65
2022/08/02 04:14:34;;;;;;;;;;;512.70;2380.80;;;;;;5073860;28;19936;-63
2022/08/02 04:17:04;;;;;;;;;;;512.80;2380.80;;;;;;5074021;28;19966;-59
2022/08/02 04:19:31;;;;;;;;;;;512.90;2380.80;;;;;;5074162;28;19915;-63
2022/08/02 04:21:58;;;;;;;;;;;512.90;2380.80;;;;;;5073456;28;20294;-64
2022/08/02 04:24:26;;;;;;;;;;;537.60;2406.40;;;;;;5073675;28;19954;-63
2022/08/02 04:26:55;;;;;;;;;;;537.70;2406.40;;;;;;5073975;28;19995;-62
2022/08/02 04:29:21;;;;;;;;;;;537.70;2406.40;;;;;;5073676;28;19908;-61
2022/08/02 04:31:47;;;;;;;;;;;537.80;2406.40;;;;;;5073261;28;19908;-63
2022/08/02 04:34:12;;;;;;;;;;;537.80;2406.40;;;;;;5073691;28;20240;-64
2022/08/02 04:36:39;;;;;;;;;;;537.90;2406.40;;;;;;5073734;28;19994;-64
2022/08/02 04:39:04;;;;;;;;;;;538.00;2406.40;;;;;;5073508;28;20251;-65
2022/08/02 04:41:37;;;;;;;;;;;538.00;2406.40;;;;;;5073536;28;19923;-62
2022/08/02 04:44:02;;;;;;;;;;;538.10;2406.40;;;;;;5073418;28;19912;-63
2022/08/02 04:46:28;;;;;;;;;;;538.10;2406.40;;;;;;5073441;28;19908;-58
2022/08/02 04:48:53;;;;;;;;;;;538.30;2406.40;;;;;;5073210;28;19913;-62
2022/08/02 04:51:19;;;;;;;;;;;538.40;2406.40;;;;;;5072810;28;20341;-61
2022/08/02 04:53:44;;;;;;;;;;;563.30;2432.00;;;;;;5073153;28;19912;-62
2022/08/02 04:56:10;;;;;;;;;;;563.40;2432.00;;;;;;5073168;28;20008;-61
2022/08/02 04:58:36;;;;;;;;;;;563.50;2432.00;;;;;;5073031;28;19916;-61
2022/08/02 05:01:01;;;;;;;;;;;589.00;2432.00;;;;;;5072751;28;19921;-62
2022/08/02 05:03:27;;;;;;;;;;;691.30;2176.00;;;;;;5072991;28;19966;-59
2022/08/02 05:05:52;;;;;;;;;;;743.20;1792.00;;;;;;5073094;28;19909;-61
2022/08/02 05:08:18;;;;;;;;;;;794.20;1612.80;;;;;;5073096;28;19952;-63
2022/08/02 05:10:43;;;;;;;;;;;845.20;1510.40;;;;;;5072760;28;20378;-62
2022/08/02 05:13:09;;;;;;;;;;;870.60;1433.60;;;;;;5073006;28;20344;-62
2022/08/02 05:15:35;;;;;;;;;;;896.70;1305.60;;;;;;5072692;28;19915;-63
2022/08/02 05:18:00;;;;;;;;;;;922.50;1254.40;;;;;;5072943;28;19915;-57
2022/08/02 05:20:26;;;;;;;;;;;947.80;1203.20;;;;;;5072815;28;19916;-59
2022/08/02 05:22:52;;;;;;;;;;;973.00;1177.60;;;;;;5072829;28;20061;-61
2022/08/02 05:25:17;;;;;;;;;;;973.40;1152.00;;;;;;5070923;28;19997;-66
2022/08/02 05:27:43;;;;;;;;;;;998.70;1152.00;;;;;;5072502;28;20365;-57
2022/08/02 05:30:09;;;;;;;;;;;999.00;1126.40;;;;;;5072543;28;19953;-63
2022/08/02 05:32:41;;;;;;;;;;;999.20;1100.80;;;;;;5072637;28;19946;-61
2022/08/02 05:35:07;;;;;;;;;;;1024.00;1100.80;;;;;;5072570;28;19916;-62
2022/08/02 05:37:32;;;;;;;;;;;1024.60;1049.60;;;;;;5072662;28;20693;-62
2022/08/02 05:39:58;;;;;;;;;;;1050.30;1049.60;;;;;;5072333;28;19952;-58
2022/08/02 05:42:24;;;;;;;;;;;1050.20;1024.00;;;;;;5072250;28;20337;-57
2022/08/02 05:44:49;;;;;;;;;;;1075.40;1024.00;;;;;;5072357;28;19965;-57
2022/08/02 05:47:15;;;;;;;;;;;1075.90;998.40;;;;;;5072006;28;19962;-57
2022/08/02 05:49:41;;;;;;;;;;;;;;;;;;5072446;28;19909;-65
2022/08/02 05:52:09;;;;;;;;;;;1101.00;998.40;;;;;;5072085;28;19916;-65
2022/08/02 05:54:37;;;;;;;;;;;1126.70;972.80;;;;;;5071921;28;19909;-65
2022/08/02 05:57:03;;;;;;;;;;;;;;;;;;5071767;28;19909;-59
2022/08/02 05:59:35;;;;;;;;;;;1127.00;972.80;;;;;;5071939;28;19919;-65
2022/08/02 06:02:09;;;;;;;;;;;1127.10;947.20;;;;;;5070947;28;19924;-66
2022/08/02 06:04:46;;;;;;;;;;;1152.50;921.60;;;;;;5071891;28;20383;-62
2022/08/02 06:07:13;;;;;;;;;;;1127.10;921.60;;;;;;5071749;28;19915;-67
2022/08/02 06:09:39;;;;;;;;;;;1152.20;921.60;;;;;;5071821;28;19915;-59
2022/08/02 06:12:07;;;;;;;;;;;1152.90;896.00;;;;;;5071574;28;19952;-67
2022/08/02 06:14:33;;;;;;;;;;;1178.30;870.40;;;;;;5070498;28;20293;-66
2022/08/02 06:17:02;;;;;;;;;;;1203.60;870.40;;;;;;5071915;28;19916;-66
2022/08/02 06:19:28;;;;;;;;;;;1203.60;870.40;;;;;;5071453;28;19908;-66
2022/08/02 06:21:54;;;;;;;;;;;1203.70;870.40;;;;;;5071316;28;20406;-59
2022/08/02 06:24:19;;;;;;;;;;;1229.40;844.80;;;;;;5071680;28;20284;-66
2022/08/02 06:26:45;;;;;;;;;;;1229.70;819.20;;;;;;5071410;28;20362;-58
2022/08/02 06:29:12;;;;;;;;;;;1254.40;844.80;;;;;;5071476;28;20323;-57
2022/08/02 06:31:39;;;;;;;;;;;1254.60;819.20;;;;;;5071085;28;19963;-64
2022/08/02 06:34:05;;;;;;;;;;;1255.10;793.60;;;;;;5071276;28;19916;-60
2022/08/02 06:36:34;;;;;;;;;;;1254.40;819.20;;;;;;5071565;28;19908;-59
2022/08/02 06:39:19;;;;;;;;;;;1255.30;793.60;;;;;;5071443;28;20319;-62
2022/08/02 06:41:47;;;;;;;;;;;1255.10;819.20;;;;;;5070909;28;19920;-64
2022/08/02 06:44:13;;;;;;;;;;;1255.00;793.60;;;;;;5071193;28;19909;-60
2022/08/02 06:46:38;;;;;;;;;;;1280.20;768.00;;;;;;5071517;28;19915;-68
2022/08/02 06:49:04;;;;;;;;;;;1305.60;768.00;;;;;;5071088;28;19963;-60
2022/08/02 06:51:30;;;;;;;;;;;1305.70;742.40;;;;;;5071270;28;20320;-63
2022/08/02 06:53:55;;;;;;;;;;;1305.70;768.00;;;;;;5070983;28;19909;-60
2022/08/02 06:56:21;;;;;;;;;;;1305.60;768.00;;;;;;5071087;28;19995;-67
2022/08/02 06:58:46;;;;;;;;;;;1305.70;742.40;;;;;;5070868;28;19908;-68
2022/08/02 07:01:12;;;;;;;;;;;1305.90;742.40;;;;;;5070769;28;19924;-61
2022/08/02 07:03:39;;;;;;;;;;;1306.00;742.40;;;;;;5071265;28;20003;-64
2022/08/02 07:06:07;;;;;;;;;;;1306.00;742.40;;;;;;5070869;28;19955;-66
2022/08/02 07:08:35;;;;;;;;;;;1280.70;768.00;;;;;;5070745;28;19924;-60
2022/08/02 07:11:01;;;;;;;;;;;1306.50;716.80;;;;;;5070970;28;20347;-61
2022/08/02 07:13:27;;;;;;;;;;;1331.60;716.80;;;;;;5070180;28;19908;-68
2022/08/02 07:15:53;;;;;;;;;;;1331.70;716.80;;;;;;5070857;28;20049;-60
2022/08/02 07:18:19;;;;;;;;;;;1331.70;716.80;;;;;;5071113;28;20413;-69
2022/08/02 07:20:44;;;;;;;;;;;1356.90;716.80;;;;;;5070558;28;19938;-69
2022/08/02 07:23:10;;;;;;;;;;;1356.90;716.80;;;;;;5070615;28;19909;-60
2022/08/02 07:25:36;;;;;;;;;;;1331.40;742.40;;;;;;5070475;28;19985;-70
2022/08/02 07:28:01;;;;;;;;;;;1331.60;716.80;;;;;;5070646;28;19909;-60
2022/08/02 07:30:27;;;;;;;;;;;1331.70;691.20;;;;;;5070434;28;20362;-61
2022/08/02 07:32:52;;;;;;;;;;;1331.70;691.20;;;;;;5070679;28;20313;-60
2022/08/02 07:35:19;;;;;;;;;;;1305.70;716.80;;;;;;5070666;28;20003;-68
2022/08/02 07:37:45;;;;;;;;;;;1331.20;691.20;;;;;;5070379;28;20372;-60
2022/08/02 07:40:12;;;;;;;;;;;1280.20;742.40;;;;;;5070819;28;19999;-59
2022/08/02 07:42:37;;;;;;;;;;;1280.00;742.40;;;;;;5070426;28;19956;-62
2022/08/02 07:45:03;;;;;;;;;;;1305.90;716.80;;;;;;5070438;28;19938;-60
2022/08/02 07:47:29;;;;;;;;;;;1331.60;691.20;;;;;;5070587;28;19909;-67
2022/08/02 07:49:54;;;;;;;;;;;1331.20;716.80;;;;;;5070164;28;19908;-66
2022/08/02 07:52:20;;;;;;;;;;;1357.40;665.60;;;;;;5070604;28;19999;-69
2022/08/02 07:54:45;;;;;;;;;;;1357.20;691.20;;;;;;5070275;28;19909;-68
2022/08/02 07:57:11;;;;;;;;;;;1357.70;665.60;;;;;;5070315;28;19923;-68
2022/08/02 07:59:37;;;;;;;;;;;1357.50;665.60;;;;;;5068618;28;19919;-58
2022/08/02 08:02:03;;;;;;;;;;;1357.20;691.20;;;;;;5070110;28;20007;-59
2022/08/02 08:04:29;;;;;;;;;;;1357.50;665.60;;;;;;5069778;28;20322;-57
2022/08/02 08:06:55;;;;;;;;;;;1382.60;665.60;;;;;;5070091;28;19915;-58
2022/08/02 08:09:21;;;;;;;;;;;1357.70;665.60;;;;;;5069985;28;19987;-57
2022/08/02 08:11:46;;;;;;;;;;;1357.70;665.60;;;;;;5069913;28;19920;-65
2022/08/02 08:14:12;;;;;;;;;;;1357.50;665.60;;;;;;5069810;28;20416;-66
2022/08/02 08:16:37;;;;;;;;;;;1332.10;640.00;;;;;;5069305;28;19977;-59
2022/08/02 08:19:03;;;;;;;;;;;1357.10;665.60;;;;;;5069765;28;19947;-60
2022/08/02 08:21:29;;;;;;;;;;;1356.90;665.60;;;;;;5067638;28;20290;-68
2022/08/02 08:23:54;;;;;;;;;;;1331.40;691.20;;;;;;5069945;28;20369;-61
2022/08/02 08:26:20;;;;;;;;;;;1306.50;665.60;;;;;;5072954;28;19908;-60
2022/08/02 08:28:46;;;;;;;;;;;1280.90;691.20;;;;;;5073371;28;19919;-68
2022/08/02 08:31:11;;;;;;;;;;;1255.00;716.80;;;;;;5073337;28;19920;-66
2022/08/02 08:33:37;;;;;;;;;;;1203.70;742.40;;;;;;5073391;28;19912;-66
2022/08/02 08:36:03;;;;;;;;;;;1101.60;819.20;;;;;;5073769;28;19909;-58
2022/08/02 08:38:28;;;;;;;;;;;1075.70;844.80;;;;;;5073741;28;19954;-62
2022/08/02 08:40:54;;;;;;;;;;;1050.40;896.00;;;;;;5073418;28;19912;-67
2022/08/02 08:43:20;;;;;;;;;;;1024.30;921.60;;;;;;5073555;28;20012;-60
2022/08/02 08:45:46;;;;;;;;;;;998.80;972.80;;;;;;5073121;28;19912;-59
2022/08/02 08:48:14;;;;;;;;;;;998.40;998.40;;;;;;5073652;28;19962;-61
2022/08/02 08:50:55;;;;;;;;;;;973.20;972.80;;;;;;5073414;28;19912;-62
2022/08/02 08:53:22;;;;;;;;;;;972.90;998.40;;;;;;5073537;28;19970;-60
2022/08/02 08:55:51;;;;;;;;;;;947.70;1024.00;;;;;;5073503;28;20301;-58
2022/08/02 08:58:16;;;;;;;;;;;947.50;998.40;;;;;;5073013;28;20389;-68
2022/08/02 09:00:42;;;;;;;;;;;947.20;998.40;;;;;;5072795;28;19921;-58
2022/08/02 09:03:08;;;;;;;;;;;922.10;1024.00;;;;;;5072849;28;19913;-69
2022/08/02 09:05:34;;;;;;;;;;;922.50;1049.60;;;;;;5071524;28;19909;-58
2022/08/02 09:08:00;;;;;;;;;;;921.90;1049.60;;;;;;5070891;28;19909;-58
2022/08/02 09:10:36;;;;;;;;;;;896.40;1049.60;;;;;;5070862;28;20420;-59
2022/08/02 09:13:17;;;;;;;;;;;896.00;1075.20;;;;;;5070835;28;19917;-66
2022/08/02 09:15:44;;;;;;;;;;;896.40;1049.60;;;;;;5071096;28;19912;-58
2022/08/02 09:18:10;;;;;;;;;;;896.00;1075.20;;;;;;5070901;28;20011;-63
2022/08/02 09:20:56;;;;;;;;;;;896.20;1075.20;;;;;;5070022;28;20008;-63
2022/08/02 09:23:22;;;;;;;;;;;896.30;1075.20;;;;;;5070046;28;19940;-60
2022/08/02 09:25:58;;;;;;;;;;;896.20;1075.20;;;;;;5070652;28;19947;-68
2022/08/02 09:28:30;;;;;;;;;;;896.70;1049.60;;;;;;5070646;28;19908;-66
2022/08/02 09:30:58;;;;;;;;;;;921.70;1075.20;;;;;;5070149;28;19913;-58
2022/08/02 09:33:26;;;;;;;;;;;921.70;1075.20;;;;;;5069860;28;20390;-65
2022/08/02 09:35:58;;;;;;;;;;;921.80;1075.20;;;;;;5070268;28;20378;-65
2022/08/02 09:38:24;;;;;;;;;;;921.70;1049.60;;;;;;5070180;28;19912;-62
2022/08/02 09:40:49;;;;;;;;;;;896.00;1075.20;;;;;;5070363;28;19962;-59
2022/08/02 09:43:16;;;;;;;;;;;870.90;1100.80;;;;;;5070098;28;19912;-57
2022/08/02 09:45:42;;;;;;;;;;;870.90;1126.40;;;;;;5069735;28;19980;-64
2022/08/02 09:48:08;;;;;;;;;;;871.00;1126.40;;;;;;5070088;28;19936;-59
2022/08/02 09:50:37;;;;;;;;;;;870.90;1126.40;;;;;;5069918;28;19920;-66
2022/08/02 09:53:03;;;;;;;;;;;870.90;1126.40;;;;;;5070063;28;20429;-61
2022/08/02 09:55:29;;;;;;;;;;;871.00;1126.40;;;;;;5070110;28;20014;-60
2022/08/02 09:57:55;;;;;;;;;;;871.30;1100.80;;;;;;5069305;28;19958;-61
2022/08/02 10:00:20;;;;;;;;;;;896.40;1100.80;;;;;;5069786;28;19924;-68
2022/08/02 10:03:06;;;;;;;;;;;896.30;1075.20;;;;;;5069763;28;19971;-64
2022/08/02 10:05:55;;;;;;;;;;;896.30;1049.60;;;;;;5069851;28;20529;-65
2022/08/02 10:08:21;;;;;;;;;;;896.20;1049.60;;;;;;5069778;28;19909;-67
2022/08/02 10:10:47;;;;;;;;;;;871.30;1075.20;;;;;;5069446;28;20277;-58
2022/08/02 10:13:13;;;;;;;;;;;896.20;1075.20;;;;;;5069430;28;19920;-62
2022/08/02 10:15:38;;;;;;;;;;;896.50;1049.60;;;;;;5069692;28;20089;-62
2022/08/02 10:18:05;;;;;;;;;;;871.20;1100.80;;;;;;5069240;28;20339;-60
2022/08/02 10:20:32;;;;;;;;;;;870.80;1126.40;;;;;;5069472;28;19978;-61
2022/08/02 10:22:58;;;;;;;;;;;871.10;1100.80;;;;;;5069593;28;19912;-58
2022/08/02 10:25:24;;;;;;;;;;;871.30;1075.20;;;;;;5068917;28;19912;-58
2022/08/02 10:27:50;;;;;;;;;;;871.30;1049.60;;;;;;5069423;28;20286;-58
2022/08/02 10:30:15;;;;;;;;;;;896.30;1100.80;;;;;;5069066;28;19952;-61
2022/08/02 10:32:42;;;;;;;;;;;896.20;1100.80;;;;;;5069243;28;19932;-67
2022/08/02 10:35:09;;;;;;;;;;;896.30;1100.80;;;;;;5069087;28;19916;-63
2022/08/02 10:37:38;;;;;;;;;;;896.80;1075.20;;;;;;5069003;28;19931;-58
2022/08/02 10:40:04;;;;;;;;;;;921.60;1100.80;;;;;;5069200;28;19908;-58
2022/08/02 10:42:41;;;;;;;;;;;896.70;1024.00;;;;;;5069263;28;19947;-66
2022/08/02 10:45:08;;;;;;;;;;;871.30;1024.00;;;;;;5069077;28;19908;-64
2022/08/02 10:47:34;;;;;;;;;;;871.30;1049.60;;;;;;5068455;28;19908;-64
2022/08/02 10:50:00;;;;;;;;;;;870.80;1075.20;;;;;;5068317;28;19923;-63
2022/08/02 10:52:29;;;;;;;;;;;845.20;1126.40;;;;;;5068160;28;19917;-68
2022/08/02 10:54:56;;;;;;;;;;;845.20;1100.80;;;;;;5068920;28;20410;-62
2022/08/02 10:57:27;;;;;;;;;;;844.90;1126.40;;;;;;5069203;28;19908;-69
2022/08/02 10:59:56;;;;;;;;;;;820.10;1100.80;;;;;;5068726;28;19960;-68
2022/08/02 11:02:40;;;;;;;;;;;845.00;1100.80;;;;;;5069314;28;19957;-61
2022/08/02 11:05:10;;;;;;;;;;;845.30;1100.80;;;;;;5068448;28;19912;-58
2022/08/02 11:07:37;;;;;;;;;;;845.70;1126.40;;;;;;5068913;28;19912;-58
2022/08/02 11:10:32;;;;;;;;;;;845.70;1100.80;;;;;;5068825;28;20011;-58
2022/08/02 11:13:12;;;;;;;;;;;870.60;1075.20;;;;;;5055114;28;19916;-63
2022/08/02 11:15:47;;;;;;;;;;;870.50;1075.20;;;;;;5068727;28;19913;-63
2022/08/02 11:18:12;;;;;;;;;;;870.50;1075.20;;;;;;5068508;28;19969;-61
2022/08/02 11:20:38;;;;;;;;;;;870.70;1100.80;;;;;;5068909;28;20009;-65
2022/08/02 11:23:30;;;;;;;;;;;870.50;1100.80;;;;;;5068552;28;19909;-57
2022/08/02 11:25:55;;;;;;;;;;;870.50;1100.80;;;;;;5065478;28;19909;-63
2022/08/02 11:28:21;;;;;;;;;;;870.90;1100.80;;;;;;5068918;28;19908;-62
2022/08/02 11:30:54;;;;;;;;;;;870.70;1075.20;;;;;;5068063;28;19923;-68
2022/08/02 11:33:20;;;;;;;;;;;870.80;1049.60;;;;;;5068704;28;19938;-69
2022/08/02 11:35:46;;;;;;;;;;;870.60;1049.60;;;;;;5068440;28;19909;-68
2022/08/02 11:38:13;;;;;;;;;;;870.50;1049.60;;;;;;5068701;28;20476;-58
2022/08/02 11:40:38;;;;;;;;;;;870.50;1075.20;;;;;;5068548;28;19958;-58
2022/08/02 11:43:14;;;;;;;;;;;845.20;1100.80;;;;;;5068044;28;19908;-62
2022/08/02 11:45:39;;;;;;;;;;;845.00;1100.80;;;;;;5068544;28;19921;-58
2022/08/02 11:48:05;;;;;;;;;;;845.40;1100.80;;;;;;5068483;28;20020;-61
2022/08/02 11:50:31;;;;;;;;;;;870.50;1075.20;;;;;;5068599;28;20465;-64
2022/08/02 11:52:56;;;;;;;;;;;870.50;1049.60;;;;;;5068280;28;19916;-58
2022/08/02 11:55:26;;;;;;;;;;;845.50;1100.80;;;;;;5067531;28;20336;-67
2022/08/02 11:57:58;;;;;;;;;;;845.30;1100.80;;;;;;5068211;28;19909;-59
2022/08/02 12:00:24;;;;;;;;;;;844.80;1126.40;;;;;;5069092;28;19927;-60
2022/08/02 12:02:50;;;;;;;;;;;844.80;1126.40;;;;;;5072251;28;19925;-69
2022/08/02 12:05:17;;;;;;;;;;;845.20;1126.40;;;;;;5071648;28;20012;-62
2022/08/02 12:07:44;;;;;;;;;;;845.50;1126.40;;;;;;5072088;28;19939;-67
2022/08/02 12:10:11;;;;;;;;;;;845.70;1075.20;;;;;;5071768;28;19912;-62
2022/08/02 12:12:53;;;;;;;;;;;870.50;1100.80;;;;;;5071878;28;20023;-60
2022/08/02 12:15:29;;;;;;;;;;;870.50;1100.80;;;;;;5071940;28;19962;-67
2022/08/02 12:20:38;;;;;;;;;;;870.60;1100.80;;;;;;5072268;28;19954;-64
2022/08/02 12:23:04;;;;;;;;;;;870.80;1075.20;;;;;;5071388;28;19916;-60
2022/08/02 12:25:30;;;;;;;;;;;870.70;1100.80;;;;;;5071938;28;19917;-60
2022/08/02 12:28:21;;;;;;;;;;;870.70;1075.20;;;;;;5071649;28;20476;-64
2022/08/02 12:30:52;;;;;;;;;;;870.90;1075.20;;;;;;5071458;28;19916;-68
2022/08/02 12:33:18;;;;;;;;;;;870.50;1100.80;;;;;;5071340;28;19927;-61
2022/08/02 12:35:44;;;;;;;;;;;870.40;1100.80;;;;;;5070976;28;19912;-64
2022/08/02 12:38:09;;;;;;;;;;;870.40;1100.80;;;;;;5071752;28;19967;-67
2022/08/02 12:40:35;;;;;;;;;;;845.60;1100.80;;;;;;5071340;28;20277;-61
2022/08/02 12:43:02;;;;;;;;;;;845.70;1100.80;;;;;;5071525;28;20363;-62
2022/08/02 12:45:30;;;;;;;;;;;845.60;1100.80;;;;;;5071075;28;19912;-68
2022/08/02 12:47:56;;;;;;;;;;;845.70;1100.80;;;;;;5070987;28;19912;-66
2022/08/02 12:50:28;;;;;;;;;;;845.40;1126.40;;;;;;5071432;28;19908;-58
2022/08/02 12:53:10;;;;;;;;;;;845.50;1126.40;;;;;;5071043;28;19921;-59
2022/08/02 12:55:45;;;;;;;;;;;845.60;1126.40;;;;;;5070997;28;19909;-64
2022/08/02 12:58:11;;;;;;;;;;;845.40;1126.40;;;;;;5072421;28;20271;-67
2022/08/02 13:00:37;;;;;;;;;;;845.20;1126.40;;;;;;5072679;28;19921;-68
2022/08/02 13:03:03;;;;;;;;;;;845.20;1126.40;;;;;;5073013;28;19934;-67
2022/08/02 13:05:29;;;;;;;;;;;845.30;1126.40;;;;;;5073252;28;19931;-67
2022/08/02 13:07:56;;;;;;;;;;;845.70;1126.40;;;;;;5072887;28;20355;-58
2022/08/02 13:10:22;;;;;;;;;;;845.70;1075.20;;;;;;5072705;28;19909;-65
2022/08/02 13:12:48;;;;;;;;;;;845.70;1126.40;;;;;;5072641;28;20363;-68
2022/08/02 13:15:14;;;;;;;;;;;845.70;1126.40;;;;;;5072102;28;19913;-64
2022/08/02 13:17:40;;;;;;;;;;;870.40;1126.40;;;;;;5072470;28;19919;-60
2022/08/02 13:20:06;;;;;;;;;;;870.50;1126.40;;;;;;5079874;28;20461;-58
2022/08/02 13:22:31;;;;;;;;;;;870.50;1100.80;;;;;;5077638;28;20351;-61
2022/08/02 13:24:57;;;;;;;;;;;870.60;1100.80;;;;;;5072497;28;19954;-62
2022/08/02 13:27:23;;;;;;;;;;;870.50;1100.80;;;;;;5072644;28;19919;-65
2022/08/02 13:29:49;;;;;;;;;;;845.40;1126.40;;;;;;5072549;28;20434;-65
2022/08/02 13:32:15;;;;;;;;;;;844.90;1152.00;;;;;;5072237;28;20019;-57
2022/08/02 13:34:40;;;;;;;;;;;844.90;1152.00;;;;;;5072683;28;19908;-58
2022/08/02 13:37:06;;;;;;;;;;;820.10;1152.00;;;;;;5071863;28;20264;-57
2022/08/02 13:39:31;;;;;;;;;;;819.70;1152.00;;;;;;5072574;28;19916;-66
2022/08/02 13:41:57;;;;;;;;;;;819.60;1152.00;;;;;;5072064;28;20520;-67
2022/08/02 13:44:23;;;;;;;;;;;819.50;1152.00;;;;;;5081875;28;19916;-63
2022/08/02 13:46:48;;;;;;;;;;;819.80;1152.00;;;;;;5071979;28;19909;-67
2022/08/02 13:49:14;;;;;;;;;;;819.80;1152.00;;;;;;5069757;28;19915;-64